Time;durP1;ratioP1;P1;durP2;ratioP2;P2;SDS_P1;SDS_P2;PMS_P1;PMS_P2;Temp;Humidity;BMP_temperature;BMP_pressure;BME280_temperature;BME280_humidity;BME280_pressure;Samples;Min_cycle;Max_cycle;Signal;HPM_P1;HPM_P2
2023/07/29 00:02:06;;;;;;;11.73;6.70;;;18.80;99.90;;;;;;5033545;28;20111;-82
2023/07/29 00:04:32;;;;;;;10.68;6.88;;;18.70;99.90;;;;;;5025216;28;20322;-82
2023/07/29 00:06:57;;;;;;;11.00;7.40;;;18.70;99.90;;;;;;5002627;28;20041;-81
2023/07/29 00:09:23;;;;;;;18.92;7.45;;;18.70;99.90;;;;;;4997519;28;20482;-81
2023/07/29 00:11:48;;;;;;;10.88;7.32;;;18.70;99.90;;;;;;5004561;28;20038;-81
2023/07/29 00:14:14;;;;;;;11.90;7.68;;;18.80;99.90;;;;;;5029405;28;20070;-81
2023/07/29 00:16:39;;;;;;;11.82;7.95;;;18.70;99.90;;;;;;5032673;28;20033;-81
2023/07/29 00:19:05;;;;;;;12.25;7.90;;;18.70;99.90;;;;;;5016208;28;20080;-82
2023/07/29 00:21:31;;;;;;;12.88;7.63;;;18.70;99.90;;;;;;5023965;28;20038;-81
2023/07/29 00:23:57;;;;;;;10.57;7.68;;;18.70;99.90;;;;;;5016984;28;20048;-82
2023/07/29 00:26:25;;;;;;;10.95;7.53;;;18.70;99.90;;;;;;5032930;28;20061;-81
2023/07/29 00:28:51;;;;;;;11.80;8.20;;;18.70;99.90;;;;;;5007716;28;20046;-81
2023/07/29 00:31:17;;;;;;;11.18;7.35;;;18.70;99.90;;;;;;5014420;28;20430;-81
2023/07/29 00:33:42;;;;;;;10.95;8.32;;;18.70;99.90;;;;;;5014382;28;20172;-81
2023/07/29 00:36:08;;;;;;;11.05;8.00;;;18.80;99.90;;;;;;5014480;28;20038;-81
2023/07/29 00:38:33;;;;;;;12.00;8.10;;;18.70;99.90;;;;;;4996967;28;20037;-81
2023/07/29 00:41:02;;;;;;;11.45;8.25;;;18.70;99.90;;;;;;4996635;28;20045;-81
2023/07/29 00:43:27;;;;;;;11.73;8.45;;;18.60;99.90;;;;;;5002237;28;20045;-81
2023/07/29 00:45:53;;;;;;;13.32;8.70;;;18.60;99.90;;;;;;5031801;28;20037;-81
2023/07/29 00:48:18;;;;;;;10.75;7.70;;;18.60;99.90;;;;;;5011805;28;20517;-80
2023/07/29 00:50:44;;;;;;;11.93;8.20;;;18.60;99.90;;;;;;5013236;28;20056;-81
2023/07/29 00:53:10;;;;;;;11.43;7.85;;;18.60;99.90;;;;;;5013142;28;20041;-81
2023/07/29 00:55:36;;;;;;;12.77;8.80;;;18.60;99.90;;;;;;4996622;28;20049;-81
2023/07/29 00:58:02;;;;;;;11.40;8.27;;;18.60;99.90;;;;;;4998286;28;20521;-81
2023/07/29 01:00:28;;;;;;;11.55;8.30;;;18.60;99.90;;;;;;5026000;28;20040;-81
2023/07/29 01:02:54;;;;;;;14.52;8.38;;;18.60;99.90;;;;;;5028962;28;20033;-81
2023/07/29 01:05:21;;;;;;;12.27;8.35;;;18.60;99.90;;;;;;5015531;28;20033;-81
2023/07/29 01:08:05;;;;;;;10.65;7.97;;;18.50;99.90;;;;;;4999119;28;20068;-81
2023/07/29 01:10:59;;;;;;;13.68;8.73;;;18.50;99.90;;;;;;5031746;28;20519;-82
2023/07/29 01:13:41;;;;;;;12.52;8.48;;;18.50;99.90;;;;;;5028076;28;20081;-81
2023/07/29 01:16:17;;;;;;;11.52;9.02;;;18.40;99.90;;;;;;5032634;28;20048;-82
2023/07/29 01:18:47;;;;;;;12.50;8.88;;;18.40;99.90;;;;;;5015140;28;20504;-82
2023/07/29 01:21:14;;;;;;;15.55;9.00;;;18.40;99.90;;;;;;5019884;28;20052;-82
2023/07/29 01:23:39;;;;;;;12.43;9.43;;;18.30;99.90;;;;;;5012357;28;20061;-82
2023/07/29 01:26:05;;;;;;;11.07;8.30;;;18.30;99.90;;;;;;5022955;28;20078;-81
2023/07/29 01:28:31;;;;;;;12.23;8.77;;;18.30;99.90;;;;;;5030890;28;20073;-81
2023/07/29 01:31:16;;;;;;;11.73;8.43;;;18.20;99.90;;;;;;5022072;28;20037;-81
2023/07/29 01:33:53;;;;;;;12.93;8.40;;;18.20;99.90;;;;;;5026056;28;20038;-81
2023/07/29 01:36:25;;;;;;;11.65;8.32;;;18.20;99.90;;;;;;5013945;28;20489;-82
2023/07/29 01:38:51;;;;;;;;;;;18.20;99.90;;;;;;5032497;28;20052;-82
2023/07/29 01:41:18;;;;;;;12.15;8.45;;;18.20;99.90;;;;;;5030919;28;19924;-83
2023/07/29 01:43:44;;;;;;;11.57;8.70;;;18.20;99.90;;;;;;5032095;28;20056;-82
2023/07/29 01:46:11;;;;;;;11.85;8.38;;;18.10;99.90;;;;;;5015553;28;20038;-81
2023/07/29 01:48:37;;;;;;;10.80;8.60;;;18.20;99.90;;;;;;5015564;28;20406;-82
2023/07/29 01:51:03;;;;;;;10.85;7.63;;;18.10;99.90;;;;;;5020869;28;20050;-82
2023/07/29 01:53:29;;;;;;;10.82;8.07;;;18.10;99.90;;;;;;5026189;28;20138;-82
2023/07/29 01:55:54;;;;;;;11.48;7.60;;;18.10;99.90;;;;;;5008295;28;20506;-82
2023/07/29 01:58:20;;;;;;;11.70;8.10;;;18.10;99.90;;;;;;5021760;28;20064;-82
2023/07/29 02:00:45;;;;;;;12.23;7.75;;;18.10;99.90;;;;;;5011251;28;20038;-81
2023/07/29 02:03:11;;;;;;;12.07;7.25;;;18.00;99.90;;;;;;5019033;28;20410;-81
2023/07/29 02:05:36;;;;;;;10.80;7.75;;;18.00;99.90;;;;;;5000740;28;20092;-81
2023/07/29 02:08:02;;;;;;;10.85;7.30;;;18.10;99.90;;;;;;5041896;28;20461;-82
2023/07/29 02:10:28;;;;;;;11.88;7.38;;;18.00;99.90;;;;;;5000218;28;20038;-80
2023/07/29 02:12:53;;;;;;;10.77;7.28;;;17.90;99.90;;;;;;5015958;28;20034;-81
2023/07/29 02:15:19;;;;;;;10.10;6.53;;;18.00;99.90;;;;;;5028637;28;20120;-80
2023/07/29 02:17:44;;;;;;;10.05;7.00;;;18.00;99.90;;;;;;5005378;28;20045;-80
2023/07/29 02:20:10;;;;;;;11.68;7.47;;;18.00;99.90;;;;;;5022326;28;20045;-81
2023/07/29 02:22:36;;;;;;;11.40;6.80;;;17.90;99.90;;;;;;5023570;28;20042;-81
2023/07/29 02:25:02;;;;;;;10.88;6.65;;;17.90;99.90;;;;;;5022783;28;20387;-81
2023/07/29 02:27:28;;;;;;;10.43;6.65;;;17.90;99.90;;;;;;5001603;28;20409;-82
2023/07/29 02:29:54;;;;;;;10.27;6.60;;;17.90;99.90;;;;;;5036683;28;20049;-82
2023/07/29 02:32:20;;;;;;;9.32;6.57;;;17.90;99.90;;;;;;5025950;28;20410;-80
2023/07/29 02:34:45;;;;;;;10.20;7.10;;;17.90;99.90;;;;;;5029869;28;20029;-81
2023/07/29 02:37:11;;;;;;;10.52;6.90;;;17.90;99.90;;;;;;5010199;28;20037;-81
2023/07/29 02:39:37;;;;;;;11.43;7.00;;;17.80;99.90;;;;;;5020842;28;20092;-81
2023/07/29 02:42:03;;;;;;;9.88;6.85;;;18.00;99.90;;;;;;5035577;28;20537;-81
2023/07/29 02:44:29;;;;;;;11.52;6.97;;;17.90;99.90;;;;;;5036496;28;20045;-81
2023/07/29 02:46:55;;;;;;;10.30;6.25;;;17.90;99.90;;;;;;5035165;28;20033;-82
2023/07/29 02:49:21;;;;;;;10.13;6.25;;;17.80;99.90;;;;;;5029121;28;20050;-82
2023/07/29 02:51:47;;;;;;;9.15;6.07;;;17.80;99.90;;;;;;5032531;28;20128;-81
2023/07/29 02:54:13;;;;;;;9.73;6.97;;;17.80;99.90;;;;;;5034858;28;20129;-81
2023/07/29 02:56:38;;;;;;;9.52;6.50;;;17.70;99.90;;;;;;5032778;28;20444;-81
2023/07/29 02:59:04;;;;;;;8.57;5.85;;;17.80;99.90;;;;;;5032304;28;20042;-81
2023/07/29 03:01:30;;;;;;;10.70;6.38;;;17.70;99.90;;;;;;5032652;28;20037;-81
2023/07/29 03:03:56;;;;;;;9.65;6.00;;;17.70;99.90;;;;;;5035619;28;20124;-81
2023/07/29 03:06:21;;;;;;;10.30;6.50;;;17.80;99.90;;;;;;5049107;28;20585;-82
2023/07/29 03:08:47;;;;;;;10.02;6.47;;;17.80;99.90;;;;;;5026226;28;20120;-82
2023/07/29 03:11:15;;;;;;;10.05;6.53;;;17.70;99.90;;;;;;5021306;28;20041;-81
2023/07/29 03:13:40;;;;;;;10.48;6.40;;;17.70;99.90;;;;;;5027860;28;20033;-82
2023/07/29 03:16:10;;;;;;;11.75;6.40;;;17.70;99.90;;;;;;5017275;28;20037;-81
2023/07/29 03:18:37;;;;;;;10.73;6.13;;;17.70;99.90;;;;;;5014604;28;20055;-81
2023/07/29 03:21:03;;;;;;;9.38;6.30;;;17.70;99.90;;;;;;5054574;28;20063;-81
2023/07/29 03:23:29;;;;;;;12.57;6.70;;;17.70;99.90;;;;;;5048742;28;20045;-81
2023/07/29 03:25:57;;;;;;;10.32;6.22;;;17.70;99.90;;;;;;5031896;28;20092;-80
2023/07/29 03:28:28;;;;;;;11.30;6.60;;;17.70;99.90;;;;;;5019811;28;20057;-81
2023/07/29 03:30:54;;;;;;;9.35;6.15;;;17.70;99.90;;;;;;5021901;28;20040;-81
2023/07/29 03:33:20;;;;;;;8.10;5.78;;;17.70;99.90;;;;;;5032268;28;20482;-81
2023/07/29 03:35:45;;;;;;;9.00;6.15;;;17.60;99.90;;;;;;5032696;28;20033;-81
2023/07/29 03:38:11;;;;;;;9.60;5.93;;;17.50;99.90;;;;;;5014692;28;20099;-81
2023/07/29 03:40:41;;;;;;;9.20;6.50;;;17.60;99.90;;;;;;5022162;28;20120;-82
2023/07/29 03:43:07;;;;;;;9.15;6.30;;;17.60;99.90;;;;;;5034523;28;20099;-82
2023/07/29 03:45:33;;;;;;;10.60;5.65;;;17.60;99.90;;;;;;5008697;28;20046;-81
2023/07/29 03:47:58;;;;;;;9.52;6.32;;;17.60;99.90;;;;;;5019868;28;20375;-81
2023/07/29 03:50:24;;;;;;;9.93;6.05;;;17.60;99.90;;;;;;5022344;28;20124;-82
2023/07/29 03:52:50;;;;;;;8.32;5.45;;;17.60;99.90;;;;;;4998462;28;20033;-82
2023/07/29 03:55:16;;;;;;;8.38;5.55;;;17.60;99.90;;;;;;4999559;28;20046;-82
2023/07/29 03:57:41;;;;;;;9.05;6.03;;;17.50;99.90;;;;;;5022838;28;20033;-82
2023/07/29 04:00:08;;;;;;;10.38;5.63;;;17.60;99.90;;;;;;5021060;28;20041;-81
2023/07/29 04:02:37;;;;;;;12.05;6.22;;;17.50;99.90;;;;;;5002022;28;20041;-82
2023/07/29 04:05:03;;;;;;;11.52;6.00;;;17.60;99.90;;;;;;5020595;28;20049;-82
2023/07/29 04:07:30;;;;;;;9.30;5.68;;;17.50;99.90;;;;;;5025397;28;20113;-82
2023/07/29 04:09:56;;;;;;;9.68;5.50;;;17.50;99.90;;;;;;5032271;28;21373;-82
2023/07/29 04:12:22;;;;;;;9.60;5.53;;;17.50;99.90;;;;;;5011701;28;20052;-82
2023/07/29 04:14:48;;;;;;;9.00;6.03;;;17.50;99.90;;;;;;5024279;28;20041;-82
2023/07/29 04:17:14;;;;;;;10.10;5.70;;;17.40;99.90;;;;;;5010293;28;20037;-82
2023/07/29 04:19:39;;;;;;;10.00;5.65;;;17.40;99.90;;;;;;4997909;28;20052;-83
2023/07/29 04:22:05;;;;;;;8.43;5.38;;;17.40;99.90;;;;;;5024454;28;20406;-82
2023/07/29 04:24:31;;;;;;;9.40;5.38;;;17.40;99.90;;;;;;5014352;28;20046;-82
2023/07/29 04:26:56;;;;;;;8.98;5.57;;;17.40;99.90;;;;;;5024645;28;20049;-82
2023/07/29 04:29:22;;;;;;;8.90;5.60;;;17.40;99.90;;;;;;5012693;28;20046;-83
2023/07/29 04:31:52;;;;;;;9.65;4.75;;;17.40;99.90;;;;;;5020389;28;20061;-82
2023/07/29 04:34:20;;;;;;;10.82;5.30;;;17.40;99.90;;;;;;5033734;28;20088;-82
2023/07/29 04:36:47;;;;;;;8.32;4.95;;;17.30;99.90;;;;;;5030096;28;20037;-83
2023/07/29 04:39:13;;;;;;;7.85;4.75;;;17.40;99.90;;;;;;5030782;28;20140;-82
2023/07/29 04:41:38;;;;;;;7.93;4.25;;;17.30;99.90;;;;;;5029220;28;20545;-82
2023/07/29 04:44:04;;;;;;;8.35;4.60;;;17.40;99.90;;;;;;5014748;28;20038;-82
2023/07/29 04:46:30;;;;;;;12.85;4.90;;;17.30;99.90;;;;;;5031289;28;20041;-82
2023/07/29 04:48:55;;;;;;;8.70;4.93;;;17.40;99.90;;;;;;5025146;28;20042;-82
2023/07/29 04:51:21;;;;;;;11.90;5.07;;;17.40;99.90;;;;;;5001475;28;20033;-82
2023/07/29 04:53:47;;;;;;;7.95;4.90;;;17.40;99.90;;;;;;5019562;28;20574;-82
2023/07/29 04:56:13;;;;;;;12.13;4.85;;;17.40;99.90;;;;;;4997028;28;20516;-82
2023/07/29 04:58:38;;;;;;;8.57;4.60;;;17.40;99.90;;;;;;5010234;28;20030;-82
2023/07/29 05:01:04;;;;;;;8.43;4.25;;;17.40;99.90;;;;;;5047249;28;20064;-82
2023/07/29 05:03:30;;;;;;;9.07;4.72;;;17.50;99.90;;;;;;5026572;28;20041;-82
2023/07/29 05:05:57;;;;;;;8.07;4.13;;;17.50;99.90;;;;;;5015268;28;20094;-83
2023/07/29 05:08:22;;;;;;;7.15;3.90;;;17.50;99.90;;;;;;5009115;28;20105;-82
2023/07/29 05:10:52;;;;;;;7.25;3.70;;;17.50;99.90;;;;;;4996240;28;20076;-82
2023/07/29 05:13:18;;;;;;;8.48;4.10;;;17.50;99.90;;;;;;5015348;28;20144;-82
2023/07/29 05:15:43;;;;;;;7.10;3.60;;;17.50;99.90;;;;;;5030692;28;20525;-82
2023/07/29 05:18:09;;;;;;;9.00;4.07;;;17.40;99.90;;;;;;5028854;28;20041;-82
2023/07/29 05:20:35;;;;;;;9.40;3.83;;;17.50;99.90;;;;;;5028553;28;20401;-82
2023/07/29 05:23:00;;;;;;;8.40;3.70;;;17.50;99.90;;;;;;5014210;28;20034;-82
2023/07/29 05:25:26;;;;;;;9.63;3.65;;;17.50;99.90;;;;;;5016896;28;20447;-82
2023/07/29 05:27:52;;;;;;;7.97;3.85;;;17.50;99.90;;;;;;5031490;28;20052;-82
2023/07/29 05:30:18;;;;;;;9.80;3.55;;;17.50;99.90;;;;;;5026224;28;20124;-82
2023/07/29 05:32:43;;;;;;;9.88;3.58;;;17.50;99.90;;;;;;5006181;28;20041;-82
2023/07/29 05:35:09;;;;;;;7.35;3.05;;;17.50;99.90;;;;;;5025920;28;20535;-83
2023/07/29 05:37:37;;;;;;;6.50;3.10;;;17.50;99.90;;;;;;5021828;28;20211;-83
2023/07/29 05:40:03;;;;;;;6.57;3.35;;;17.40;99.90;;;;;;5026121;28;20041;-82
2023/07/29 05:42:29;;;;;;;7.47;3.25;;;17.50;99.90;;;;;;5011935;28;20067;-82
2023/07/29 05:44:55;;;;;;;8.45;2.90;;;17.50;99.90;;;;;;5031245;28;20037;-83
2023/07/29 05:47:20;;;;;;;6.85;3.30;;;17.50;99.90;;;;;;5013398;28;20444;-82
2023/07/29 05:49:46;;;;;;;8.85;3.10;;;17.50;99.90;;;;;;5032016;28;20030;-82
2023/07/29 05:52:11;;;;;;;6.93;3.25;;;17.60;99.90;;;;;;5020211;28;20029;-82
2023/07/29 05:54:37;;;;;;;7.38;3.25;;;17.60;99.90;;;;;;5021450;28;20033;-82
2023/07/29 05:57:03;;;;;;;7.15;3.22;;;17.60;99.90;;;;;;5014938;28;20056;-82
2023/07/29 05:59:29;;;;;;;7.15;3.03;;;17.60;99.90;;;;;;5032067;28;20440;-82
2023/07/29 06:01:55;;;;;;;7.00;2.85;;;17.70;99.90;;;;;;5026598;28;20453;-82
2023/07/29 06:04:20;;;;;;;7.40;3.10;;;17.60;99.90;;;;;;5012372;28;20162;-82
2023/07/29 06:06:46;;;;;;;7.82;3.08;;;17.60;99.90;;;;;;5030398;28;20095;-82
2023/07/29 06:09:11;;;;;;;5.53;2.92;;;17.60;99.90;;;;;;5031927;28;20069;-83
2023/07/29 06:11:37;;;;;;;7.43;2.95;;;17.60;99.90;;;;;;5013850;28;20457;-82
2023/07/29 06:14:02;;;;;;;6.75;2.60;;;17.60;99.90;;;;;;5012421;28;20049;-82
2023/07/29 06:16:28;;;;;;;9.40;2.95;;;17.60;99.90;;;;;;4995298;28;20030;-82
2023/07/29 06:18:54;;;;;;;6.43;2.95;;;17.60;99.90;;;;;;5013419;28;20422;-82
2023/07/29 06:21:20;;;;;;;7.22;3.15;;;17.60;99.90;;;;;;5029891;28;20060;-81
2023/07/29 06:23:46;;;;;;;7.82;3.10;;;17.70;99.90;;;;;;5014527;28;20475;-82
2023/07/29 06:26:11;;;;;;;9.98;3.40;;;17.60;99.90;;;;;;5009716;28;20041;-81
2023/07/29 06:28:37;;;;;;;6.65;3.00;;;17.70;99.90;;;;;;5032954;28;20053;-82
2023/07/29 06:31:02;;;;;;;6.57;2.88;;;17.70;99.90;;;;;;5031953;28;20037;-82
2023/07/29 06:33:28;;;;;;;7.45;3.15;;;17.80;99.90;;;;;;5031653;28;20484;-82
2023/07/29 06:35:53;;;;;;;9.80;3.05;;;17.80;99.90;;;;;;5031532;28;20057;-82
2023/07/29 06:38:21;;;;;;;8.68;3.50;;;17.90;99.90;;;;;;5031680;28;20034;-81
2023/07/29 06:40:48;;;;;;;6.70;3.15;;;17.90;99.90;;;;;;5031847;28;20045;-82
2023/07/29 06:43:13;;;;;;;8.48;3.35;;;18.20;99.90;;;;;;5033912;28;20034;-82
2023/07/29 06:45:39;;;;;;;7.85;3.13;;;18.30;99.90;;;;;;5029326;28;20448;-82
2023/07/29 06:48:04;;;;;;;9.70;3.85;;;18.30;99.90;;;;;;5025457;28;20125;-82
2023/07/29 06:50:30;;;;;;;9.85;3.10;;;18.40;99.90;;;;;;5018640;28;20068;-82
2023/07/29 06:52:58;;;;;;;8.15;3.83;;;18.40;99.90;;;;;;5019857;28;20033;-82
2023/07/29 06:55:24;;;;;;;6.60;3.17;;;18.40;99.90;;;;;;5036410;28;20059;-81
2023/07/29 06:57:50;;;;;;;7.05;3.05;;;18.30;99.90;;;;;;5035292;28;20033;-81
2023/07/29 07:00:15;;;;;;;7.55;3.60;;;18.30;99.90;;;;;;5018767;28;20045;-81
2023/07/29 07:02:41;;;;;;;9.35;3.67;;;18.30;99.90;;;;;;5018871;28;20041;-81
2023/07/29 07:05:07;;;;;;;9.07;3.50;;;18.30;99.90;;;;;;5035087;28;20502;-81
2023/07/29 07:07:33;;;;;;;12.15;4.15;;;18.30;99.90;;;;;;5034939;28;20049;-81
2023/07/29 07:09:58;;;;;;;9.32;3.55;;;18.30;99.90;;;;;;5034854;28;20041;-81
2023/07/29 07:12:24;;;;;;;9.25;4.10;;;18.40;99.90;;;;;;5035025;28;20044;-81
2023/07/29 07:14:49;;;;;;;10.25;3.90;;;18.40;99.90;;;;;;5034025;28;20049;-81
2023/07/29 07:17:15;;;;;;;7.82;3.60;;;18.50;99.90;;;;;;5034944;28;20072;-81
2023/07/29 07:19:41;;;;;;;9.60;4.40;;;18.50;99.90;;;;;;5016654;28;20046;-82
2023/07/29 07:22:06;;;;;;;9.43;4.47;;;18.50;99.90;;;;;;5031430;28;20071;-82
2023/07/29 07:24:32;;;;;;;10.18;4.05;;;18.50;99.90;;;;;;5015072;28;20186;-82
2023/07/29 07:26:58;;;;;;;9.90;5.10;;;18.50;99.90;;;;;;5014467;28;20145;-82
2023/07/29 07:29:23;;;;;;;10.25;5.10;;;18.60;99.90;;;;;;5015963;28;20060;-82
2023/07/29 07:31:53;;;;;;;10.95;4.93;;;18.50;99.90;;;;;;5015951;28;20038;-82
2023/07/29 07:34:19;;;;;;;11.93;5.75;;;18.60;99.90;;;;;;5014601;28;20045;-82
2023/07/29 07:36:46;;;;;;;10.60;5.72;;;18.50;99.90;;;;;;5030965;28;20038;-82
2023/07/29 07:39:11;;;;;;;10.48;5.20;;;18.60;99.90;;;;;;4999595;28;20052;-83
2023/07/29 07:41:37;;;;;;;14.55;5.85;;;18.50;99.90;;;;;;5018592;28;20037;-82
2023/07/29 07:44:03;;;;;;;13.38;5.55;;;18.70;99.90;;;;;;5007612;28;20045;-82
2023/07/29 07:46:29;;;;;;;12.45;5.55;;;18.80;99.90;;;;;;5028602;28;20498;-82
2023/07/29 07:48:54;;;;;;;10.63;5.40;;;19.00;99.90;;;;;;5033831;28;20041;-82
2023/07/29 07:51:20;;;;;;;9.80;5.22;;;18.90;99.90;;;;;;5033986;28;20044;-82
2023/07/29 07:53:46;;;;;;;12.82;5.25;;;19.00;99.90;;;;;;5033127;28;20084;-82
2023/07/29 07:56:12;;;;;;;12.38;5.30;;;19.00;99.90;;;;;;4999538;28;20034;-83
2023/07/29 07:58:38;;;;;;;9.63;4.68;;;19.10;99.90;;;;;;5023199;28;20108;-82
2023/07/29 08:01:04;;;;;;;12.13;5.80;;;19.20;99.90;;;;;;5035164;28;20512;-82
2023/07/29 08:03:30;;;;;;;9.82;4.75;;;19.20;99.90;;;;;;5017339;28;20394;-82
2023/07/29 08:05:56;;;;;;;10.55;5.45;;;19.20;99.90;;;;;;5017360;28;20041;-82
2023/07/29 08:08:22;;;;;;;13.10;5.38;;;19.20;99.90;;;;;;5000183;28;20128;-82
2023/07/29 08:10:47;;;;;;;10.18;5.20;;;19.30;99.90;;;;;;5013837;28;20038;-82
2023/07/29 08:13:13;;;;;;;10.15;5.00;;;19.40;99.90;;;;;;5028383;28;20060;-82
2023/07/29 08:15:38;;;;;;;22.73;5.63;;;19.40;99.90;;;;;;5029081;28;20069;-82
2023/07/29 08:18:04;;;;;;;11.00;5.55;;;19.40;99.90;;;;;;5000956;28;20034;-82
2023/07/29 08:20:30;;;;;;;11.40;5.15;;;19.50;99.90;;;;;;5035165;28;20056;-82
2023/07/29 08:22:55;;;;;;;9.15;4.40;;;19.60;99.90;;;;;;5004393;28;20046;-82
2023/07/29 08:25:21;;;;;;;10.02;5.05;;;19.70;99.90;;;;;;5004482;28;20052;-82
2023/07/29 08:27:46;;;;;;;10.98;4.72;;;19.80;99.90;;;;;;5015699;28;20052;-82
2023/07/29 08:30:12;;;;;;;9.35;4.70;;;19.70;99.90;;;;;;5016872;28;20049;-82
2023/07/29 08:32:37;;;;;;;9.07;4.40;;;19.80;99.90;;;;;;5033200;28;20041;-82
2023/07/29 08:35:03;;;;;;;9.88;4.75;;;19.80;99.90;;;;;;5016654;28;20037;-82
2023/07/29 08:37:29;;;;;;;9.77;4.43;;;19.90;99.90;;;;;;5032572;28;20398;-82
2023/07/29 08:39:55;;;;;;;11.05;4.95;;;20.00;99.90;;;;;;5033086;28;20042;-82
2023/07/29 08:42:22;;;;;;;8.10;4.55;;;20.10;99.90;;;;;;5032259;28;20119;-82
2023/07/29 08:44:51;;;;;;;9.23;4.20;;;20.30;99.90;;;;;;5030834;28;20045;-82
2023/07/29 08:47:18;;;;;;;8.82;4.20;;;20.50;99.90;;;;;;4996823;28;20050;-82
2023/07/29 08:49:46;;;;;;;8.25;3.97;;;20.70;99.90;;;;;;5013259;28;20046;-82
2023/07/29 08:52:11;;;;;;;7.63;3.63;;;20.70;99.90;;;;;;5022402;28;20073;-82
2023/07/29 08:54:37;;;;;;;10.40;3.30;;;20.60;99.90;;;;;;5016581;28;20146;-82
2023/07/29 08:57:04;;;;;;;10.85;3.50;;;20.50;99.90;;;;;;5016404;28;20506;-82
2023/07/29 08:59:29;;;;;;;9.70;3.17;;;20.50;99.90;;;;;;5013021;28;20052;-82
2023/07/29 09:01:57;;;;;;;5.70;3.03;;;20.40;99.90;;;;;;5021163;28;20112;-82
2023/07/29 09:04:23;;;;;;;8.48;3.00;;;20.40;99.90;;;;;;5033969;28;20052;-82
2023/07/29 09:06:50;;;;;;;7.90;3.53;;;20.40;99.90;;;;;;4998471;28;20406;-83
2023/07/29 09:09:16;;;;;;;8.68;3.60;;;20.30;99.90;;;;;;5024752;28;20075;-80
2023/07/29 09:11:41;;;;;;;7.57;3.25;;;20.30;99.90;;;;;;5014420;28;20510;-81
2023/07/29 09:14:07;;;;;;;7.03;3.10;;;20.40;99.90;;;;;;5026258;28;20036;-81
2023/07/29 09:16:34;;;;;;;8.10;3.20;;;20.40;99.90;;;;;;5028519;28;20065;-81
2023/07/29 09:19:03;;;;;;;7.53;3.30;;;20.60;99.90;;;;;;5025387;28;20537;-81
2023/07/29 09:21:29;;;;;;;8.50;3.10;;;20.80;99.90;;;;;;5031502;28;20047;-81
2023/07/29 09:23:55;;;;;;;7.70;2.70;;;20.80;99.90;;;;;;5022127;28;20029;-81
2023/07/29 09:26:27;;;;;;;7.75;2.88;;;20.80;99.90;;;;;;5018919;28;20046;-80
2023/07/29 09:28:57;;;;;;;6.40;2.45;;;21.00;99.90;;;;;;5015718;28;20056;-81
2023/07/29 09:31:24;;;;;;;6.63;2.58;;;21.10;99.90;;;;;;5031336;28;20064;-81
2023/07/29 09:33:59;;;;;;;8.27;2.90;;;21.10;99.90;;;;;;5032215;28;20084;-81
2023/07/29 09:36:25;;;;;;;4.82;2.70;;;21.00;99.90;;;;;;5013870;28;20033;-81
2023/07/29 09:38:55;;;;;;;8.45;3.08;;;20.90;99.90;;;;;;5029600;28;20124;-81
2023/07/29 09:41:23;;;;;;;7.70;2.90;;;21.00;99.90;;;;;;5014419;28;20041;-81
2023/07/29 09:43:56;;;;;;;7.20;2.70;;;21.00;99.90;;;;;;5013066;28;20444;-81
2023/07/29 09:46:24;;;;;;;5.60;2.60;;;21.10;99.90;;;;;;5032022;28;20037;-81
2023/07/29 09:48:52;;;;;;;5.63;2.50;;;21.10;99.90;;;;;;5032183;28;20379;-81
2023/07/29 09:51:17;;;;;;;6.05;2.30;;;21.30;99.90;;;;;;5014768;28;20071;-81
2023/07/29 09:53:45;;;;;;;9.07;2.60;;;21.50;99.90;;;;;;5014741;28;20033;-81
2023/07/29 09:56:12;;;;;;;8.15;3.05;;;21.70;99.90;;;;;;5018881;28;20042;-81
2023/07/29 09:58:38;;;;;;;8.68;2.65;;;21.70;99.90;;;;;;4995780;28;20041;-81
2023/07/29 10:01:07;;;;;;;4.90;2.45;;;21.50;99.90;;;;;;5012415;28;20038;-81
2023/07/29 10:03:34;;;;;;;6.72;2.55;;;21.50;99.90;;;;;;4998588;28;20042;-81
2023/07/29 10:06:06;;;;;;;5.82;2.50;;;21.50;99.90;;;;;;5012144;28;20048;-81
2023/07/29 10:08:35;;;;;;;7.25;2.80;;;21.60;99.90;;;;;;4995531;28;20092;-81
2023/07/29 10:11:01;;;;;;;7.88;3.00;;;21.60;99.90;;;;;;4995599;28;20048;-81
2023/07/29 10:13:27;;;;;;;8.70;3.17;;;21.80;99.90;;;;;;5031067;28;20038;-81
2023/07/29 10:15:57;;;;;;;5.70;2.60;;;21.80;99.90;;;;;;4997547;28;20042;-81
2023/07/29 10:18:23;;;;;;;6.03;2.80;;;22.00;99.90;;;;;;5018065;28;20045;-82
2023/07/29 10:20:51;;;;;;;6.80;2.80;;;22.00;99.90;;;;;;5000276;28;20521;-81
2023/07/29 10:23:18;;;;;;;8.02;3.00;;;22.10;99.90;;;;;;5031972;28;20084;-81
2023/07/29 10:25:50;;;;;;;6.80;3.05;;;22.10;99.90;;;;;;5035034;28;20047;-82
2023/07/29 10:28:18;;;;;;;;;;;21.80;99.90;;;;;;5013172;28;20521;-82
2023/07/29 10:30:44;;;;;;;6.70;3.15;;;21.60;99.90;;;;;;5027634;28;19970;-82
2023/07/29 10:33:10;;;;;;;7.53;3.17;;;21.70;99.90;;;;;;5027034;28;20041;-82
2023/07/29 10:35:37;;;;;;;6.88;2.70;;;21.50;99.90;;;;;;5035594;28;20496;-82
2023/07/29 10:38:04;;;;;;;10.88;2.70;;;21.40;99.90;;;;;;5015263;28;20483;-82
2023/07/29 10:40:48;;;;;;;9.05;2.40;;;21.30;99.90;;;;;;5004640;28;20041;-82
2023/07/29 10:43:23;;;;;;;7.60;1.98;;;21.20;99.90;;;;;;5000701;28;20124;-82
2023/07/29 10:45:49;;;;;;;7.07;1.98;;;21.30;99.90;;;;;;5005670;28;20482;-82
2023/07/29 10:48:33;;;;;;;6.97;2.00;;;21.50;99.90;;;;;;5032423;28;20037;-82
2023/07/29 10:51:32;;;;;;;5.10;1.85;;;21.60;99.90;;;;;;5003686;28;20069;-81
2023/07/29 10:54:09;;;;;;;4.20;1.88;;;21.50;99.90;;;;;;5021883;28;20128;-82
2023/07/29 10:56:36;;;;;;;6.63;2.10;;;21.40;99.90;;;;;;5026179;28;20052;-83
2023/07/29 10:59:31;;;;;;;6.78;1.35;;;21.40;99.90;;;;;;5028799;28;20045;-83
2023/07/29 11:01:58;;;;;;;5.70;1.50;;;21.60;99.90;;;;;;5028214;28;20038;-83
2023/07/29 11:04:26;;;;;;;7.50;1.90;;;21.70;99.90;;;;;;5004888;28;20041;-83
2023/07/29 11:07:07;;;;;;;6.38;2.03;;;21.90;99.90;;;;;;5034211;28;20057;-83
2023/07/29 11:09:57;;;;;;;6.07;1.77;;;22.00;99.90;;;;;;5044716;28;20049;-83
2023/07/29 11:12:35;;;;;;;5.63;1.55;;;22.00;99.90;;;;;;5029285;28;20553;-83
2023/07/29 11:15:12;;;;;;;3.15;1.40;;;21.90;99.90;;;;;;5017194;28;20116;-83
2023/07/29 11:17:59;;;;;;;3.25;1.23;;;21.70;99.90;;;;;;5025703;28;20045;-82
2023/07/29 11:20:25;;;;;;;3.55;1.35;;;21.30;99.90;;;;;;5006345;28;20042;-83
2023/07/29 11:22:53;;;;;;;4.18;1.40;;;21.30;99.90;;;;;;5014180;28;20124;-81
2023/07/29 11:25:19;;;;;;;4.75;1.30;;;21.30;99.90;;;;;;5009550;28;20038;-82
2023/07/29 11:27:46;;;;;;;5.63;1.73;;;21.30;99.90;;;;;;5039846;28;20084;-83
2023/07/29 11:30:13;;;;;;;5.78;1.50;;;21.30;99.90;;;;;;5028649;28;20042;-82
2023/07/29 11:32:40;;;;;;;4.40;1.60;;;21.10;99.90;;;;;;5031015;28;20033;-83
2023/07/29 11:35:08;;;;;;;3.47;1.48;;;21.10;99.90;;;;;;5006082;28;20033;-83
2023/07/29 11:37:34;;;;;;;6.35;1.70;;;21.20;99.90;;;;;;5005381;28;20048;-83
2023/07/29 11:40:00;;;;;;;6.32;1.80;;;21.20;99.90;;;;;;5016026;28;20033;-82
2023/07/29 11:42:27;;;;;;;5.80;1.60;;;21.20;99.90;;;;;;5025630;28;20581;-82
2023/07/29 11:44:55;;;;;;;6.22;1.70;;;21.20;99.90;;;;;;4999881;28;20048;-82
2023/07/29 11:47:21;;;;;;;5.45;1.90;;;21.30;99.90;;;;;;5014698;28;20034;-82
2023/07/29 11:49:47;;;;;;;7.25;1.90;;;21.40;99.90;;;;;;5048786;28;20527;-82
2023/07/29 11:52:13;;;;;;;5.60;1.75;;;21.50;99.90;;;;;;5031682;28;20041;-82
2023/07/29 11:54:39;;;;;;;8.15;2.10;;;21.50;99.90;;;;;;5032616;28;20445;-82
2023/07/29 11:57:09;;;;;;;5.20;2.00;;;21.50;99.90;;;;;;5030473;28;20045;-82
2023/07/29 11:59:36;;;;;;;5.90;2.30;;;21.50;99.90;;;;;;5029324;28;20050;-82
2023/07/29 12:02:05;;;;;;;6.90;2.15;;;21.30;99.90;;;;;;5016082;28;20056;-82
2023/07/29 12:04:32;;;;;;;5.15;2.00;;;21.20;99.90;;;;;;5010108;28;20072;-83
2023/07/29 12:06:58;;;;;;;5.75;2.25;;;21.20;99.90;;;;;;5017781;28;20048;-83
2023/07/29 12:09:24;;;;;;;6.57;2.30;;;21.10;99.90;;;;;;5014684;28;20073;-83
2023/07/29 12:11:50;;;;;;;7.00;2.33;;;21.00;99.90;;;;;;5031261;28;20427;-83
2023/07/29 12:14:17;;;;;;;6.88;2.55;;;21.00;99.90;;;;;;5030905;28;20033;-83
2023/07/29 12:16:44;;;;;;;8.02;2.55;;;21.00;99.90;;;;;;5015449;28;20076;-83
2023/07/29 12:19:13;;;;;;;6.97;2.50;;;21.00;99.90;;;;;;5027116;28;20061;-83
2023/07/29 12:21:44;;;;;;;9.68;3.05;;;20.90;99.90;;;;;;5033564;28;20048;-83
2023/07/29 12:24:09;;;;;;;8.00;2.80;;;20.90;99.90;;;;;;5015868;28;20076;-83
2023/07/29 12:26:38;;;;;;;8.00;2.85;;;21.00;99.90;;;;;;5015694;28;20157;-83
2023/07/29 12:29:15;;;;;;;8.20;2.70;;;21.00;99.90;;;;;;5015718;28;20044;-83
2023/07/29 12:31:44;;;;;;;7.22;2.70;;;21.00;99.90;;;;;;5012720;28;20049;-83
2023/07/29 12:34:09;;;;;;;7.07;2.47;;;21.00;99.90;;;;;;5004484;28;20038;-83
2023/07/29 12:36:46;;;;;;;7.55;2.90;;;21.10;99.90;;;;;;5015002;28;20049;-83
2023/07/29 12:39:28;;;;;;;6.32;2.50;;;21.20;99.90;;;;;;5028546;28;20363;-83
2023/07/29 12:41:55;;;;;;;;;;;21.20;99.90;;;;;;5027008;28;20052;-83
2023/07/29 12:44:22;;;;;;;8.77;3.00;;;21.20;99.90;;;;;;5033657;28;19916;-78